createdAt,value
2018-12-25T00:00:34.740Z,0
2018-12-25T00:01:35.326Z,0
2018-12-25T00:02:35.907Z,0
2018-12-25T00:03:36.502Z,0
2018-12-25T00:04:37.086Z,0
2018-12-25T00:05:37.678Z,0
2018-12-25T00:06:38.268Z,0
2018-12-25T00:07:38.858Z,0
2018-12-25T00:08:39.448Z,0
2018-12-25T00:09:40.038Z,0
2018-12-25T00:10:40.632Z,0
2018-12-25T00:11:41.226Z,0
2018-12-25T00:12:41.815Z,0
2018-12-25T00:13:42.410Z,0
2018-12-25T00:14:43.002Z,0
2018-12-25T00:15:43.583Z,0
2018-12-25T00:16:44.180Z,0
2018-12-25T00:17:44.766Z,0
2018-12-25T00:18:45.352Z,0
2018-12-25T00:19:45.943Z,0
2018-12-25T00:20:46.532Z,0
2018-12-25T00:21:47.122Z,0
2018-12-25T00:22:47.705Z,0
2018-12-25T00:23:48.289Z,0
2018-12-25T00:24:48.877Z,0
2018-12-25T00:25:49.465Z,0
2018-12-25T00:26:50.062Z,0
2018-12-25T00:27:50.652Z,0
2018-12-25T00:28:51.245Z,0
2018-12-25T00:29:51.836Z,0
2018-12-25T00:30:52.427Z,0
2018-12-25T00:31:53.017Z,0
2018-12-25T00:32:53.610Z,0
2018-12-25T00:33:54.198Z,0
2018-12-25T00:34:54.782Z,0
2018-12-25T00:35:55.374Z,0
2018-12-25T00:36:55.960Z,0
2018-12-25T00:37:56.540Z,0
2018-12-25T00:38:57.136Z,0
2018-12-25T00:39:57.731Z,0
2018-12-25T00:40:58.319Z,0
2018-12-25T00:41:58.905Z,0
2018-12-25T00:42:59.503Z,0
2018-12-25T00:44:00.084Z,0
2018-12-25T00:45:00.676Z,0
2018-12-25T00:46:01.271Z,0
2018-12-25T00:47:01.864Z,0
2018-12-25T00:48:02.456Z,0
2018-12-25T00:49:03.047Z,0
2018-12-25T00:50:03.642Z,0
2018-12-25T00:51:04.235Z,0
2018-12-25T00:52:04.828Z,0
2018-12-25T00:53:05.420Z,0
2018-12-25T00:54:06.015Z,0
2018-12-25T00:55:06.646Z,0
2018-12-25T00:56:07.190Z,0
2018-12-25T00:57:07.775Z,0
2018-12-25T00:58:08.374Z,0
2018-12-25T00:59:08.965Z,0
2018-12-25T01:00:09.554Z,0
2018-12-25T01:01:10.158Z,0
2018-12-25T01:02:10.758Z,0
2018-12-25T01:03:11.341Z,0
2018-12-25T01:04:11.944Z,0
2018-12-25T01:05:12.527Z,0
2018-12-25T01:06:13.114Z,0
2018-12-25T01:07:13.709Z,0
2018-12-25T01:08:14.292Z,0
2018-12-25T01:09:14.885Z,0
2018-12-25T01:10:15.476Z,0
2018-12-25T01:11:16.077Z,0
2018-12-25T01:12:16.664Z,0
2018-12-25T01:13:17.258Z,0
2018-12-25T01:14:17.850Z,0
2018-12-25T01:15:18.440Z,0
2018-12-25T01:16:19.030Z,0
2018-12-25T01:17:19.619Z,0
2018-12-25T01:18:20.210Z,0
2018-12-25T01:19:23.418Z,0
2018-12-25T01:20:21.392Z,0
2018-12-25T01:21:21.979Z,0
2018-12-25T01:22:22.570Z,0
2018-12-25T01:23:23.157Z,0
2018-12-25T01:24:23.752Z,0
2018-12-25T01:25:24.345Z,0
2018-12-25T01:26:24.940Z,0
2018-12-25T01:27:25.523Z,0
2018-12-25T01:28:26.108Z,0
2018-12-25T01:29:26.703Z,0
2018-12-25T01:30:27.294Z,0
2018-12-25T01:31:27.882Z,0
2018-12-25T01:32:28.479Z,0
2018-12-25T01:33:29.059Z,0
2018-12-25T01:34:29.656Z,0
2018-12-25T01:35:30.252Z,0
2018-12-25T01:36:30.843Z,0
2018-12-25T01:37:31.436Z,0
2018-12-25T01:38:32.027Z,0
2018-12-25T01:39:32.619Z,0
2018-12-25T01:40:33.214Z,0
2018-12-25T01:41:33.807Z,0
2018-12-25T01:42:34.400Z,0
2018-12-25T01:43:34.994Z,0
2018-12-25T01:44:35.588Z,0
2018-12-25T01:45:36.181Z,0
2018-12-25T01:46:36.772Z,0
2018-12-25T01:47:37.366Z,0
2018-12-25T01:48:37.961Z,0
2018-12-25T01:49:38.542Z,0
2018-12-25T01:50:39.127Z,0
2018-12-25T01:51:39.711Z,0
2018-12-25T01:52:40.306Z,0
2018-12-25T01:53:40.896Z,0
2018-12-25T01:54:41.489Z,0
2018-12-25T01:55:42.081Z,0
2018-12-25T01:56:42.677Z,0
2018-12-25T01:57:43.273Z,0
2018-12-25T01:58:43.851Z,0
2018-12-25T01:59:44.441Z,0
2018-12-25T02:00:45.027Z,0
2018-12-25T02:01:45.613Z,0
2018-12-25T02:02:46.207Z,0
2018-12-25T02:03:46.801Z,0
2018-12-25T02:04:47.392Z,0
2018-12-25T02:05:47.984Z,0
2018-12-25T02:06:48.577Z,0
2018-12-25T02:07:49.170Z,0
2018-12-25T02:08:49.755Z,0
2018-12-25T02:09:50.350Z,0
2018-12-25T02:10:50.945Z,0
2018-12-25T02:11:51.538Z,0
2018-12-25T02:12:52.130Z,0
2018-12-25T02:13:52.721Z,0
2018-12-25T02:14:53.314Z,0
2018-12-25T02:15:53.907Z,0
2018-12-25T02:16:54.498Z,0
2018-12-25T02:17:55.089Z,0
2018-12-25T02:18:55.699Z,0
2018-12-25T02:19:56.279Z,0
2018-12-25T02:20:56.867Z,0
2018-12-25T02:21:57.453Z,0
2018-12-25T02:22:58.037Z,0
2018-12-25T02:23:58.633Z,0
2018-12-25T02:24:59.225Z,0
2018-12-25T02:25:59.819Z,0
2018-12-25T02:27:00.416Z,0
2018-12-25T02:28:01.005Z,0
2018-12-25T02:29:01.598Z,0
2018-12-25T02:30:02.189Z,0
2018-12-25T02:31:02.785Z,0
2018-12-25T02:32:03.376Z,0
2018-12-25T02:33:03.963Z,0
2018-12-25T02:34:04.560Z,0
2018-12-25T02:35:05.145Z,0
2018-12-25T02:36:05.741Z,0
2018-12-25T02:37:06.324Z,0
2018-12-25T02:38:06.917Z,0
2018-12-25T02:39:07.503Z,0
2018-12-25T02:40:08.095Z,0
2018-12-25T02:41:08.689Z,0
2018-12-25T02:42:09.277Z,0
2018-12-25T02:43:09.871Z,0
2018-12-25T02:44:10.459Z,0
2018-12-25T02:45:11.052Z,0
2018-12-25T02:46:11.645Z,0
2018-12-25T02:47:12.234Z,0
2018-12-25T02:48:12.820Z,0
2018-12-25T02:49:13.413Z,0
2018-12-25T02:50:14.015Z,0
2018-12-25T02:51:14.595Z,0
2018-12-25T02:52:15.182Z,0
2018-12-25T02:53:15.777Z,0
2018-12-25T02:54:16.361Z,0
2018-12-25T02:55:16.951Z,0
2018-12-25T02:56:17.541Z,0
2018-12-25T02:57:18.142Z,0
2018-12-25T02:58:18.722Z,0
2018-12-25T02:59:19.318Z,0
2018-12-25T03:00:19.907Z,0
2018-12-25T03:01:20.499Z,0
2018-12-25T03:02:21.095Z,0
2018-12-25T03:03:21.691Z,0
2018-12-25T03:04:22.283Z,0
2018-12-25T03:05:22.874Z,0
2018-12-25T03:06:23.468Z,0
2018-12-25T03:07:24.171Z,0
2018-12-25T03:08:24.646Z,0
2018-12-25T03:09:25.247Z,0
2018-12-25T03:10:25.834Z,0
2018-12-25T03:11:26.428Z,0
2018-12-25T03:12:27.012Z,0
2018-12-25T03:13:27.596Z,0
2018-12-25T03:14:28.185Z,0
2018-12-25T03:15:28.770Z,0
2018-12-25T03:16:29.357Z,0
2018-12-25T03:17:29.949Z,0
2018-12-25T03:18:30.536Z,0
2018-12-25T03:19:31.127Z,0
2018-12-25T03:20:31.719Z,0
2018-12-25T03:21:32.313Z,0
2018-12-25T03:22:32.899Z,0
2018-12-25T03:23:33.489Z,0
2018-12-25T03:24:34.082Z,0
2018-12-25T03:25:34.673Z,0
2018-12-25T03:26:35.264Z,0
2018-12-25T03:27:35.859Z,0
2018-12-25T03:28:36.454Z,0
2018-12-25T03:29:37.045Z,0
2018-12-25T03:30:37.646Z,0
2018-12-25T03:31:38.236Z,0
2018-12-25T03:32:38.826Z,0
2018-12-25T03:33:39.419Z,0
2018-12-25T03:34:40.004Z,0
2018-12-25T03:35:40.599Z,0
2018-12-25T03:36:41.193Z,0
2018-12-25T03:37:41.784Z,0
2018-12-25T03:38:42.377Z,0
2018-12-25T03:39:42.971Z,0
2018-12-25T03:40:43.548Z,0
2018-12-25T03:41:44.136Z,0
2018-12-25T03:42:44.733Z,0
2018-12-25T03:43:45.315Z,0
2018-12-25T03:44:45.910Z,0
2018-12-25T03:45:46.504Z,0
2018-12-25T03:46:47.102Z,0
2018-12-25T03:47:47.695Z,0
2018-12-25T03:48:48.293Z,0
2018-12-25T03:49:48.884Z,0
2018-12-25T03:50:49.479Z,0
2018-12-25T03:51:50.073Z,0
2018-12-25T03:52:50.668Z,0
2018-12-25T03:53:51.263Z,0
2018-12-25T03:54:51.860Z,0
2018-12-25T03:55:52.449Z,0
2018-12-25T03:56:53.034Z,0
2018-12-25T03:57:53.643Z,0
2018-12-25T03:58:54.218Z,0
2018-12-25T03:59:54.811Z,0
2018-12-25T04:00:55.405Z,0
2018-12-25T04:01:55.996Z,0
2018-12-25T04:02:56.586Z,0
2018-12-25T04:03:57.178Z,0
2018-12-25T04:04:57.772Z,0
2018-12-25T04:05:58.356Z,0
2018-12-25T04:06:58.952Z,0
2018-12-25T04:07:59.542Z,0
2018-12-25T04:09:00.135Z,0
2018-12-25T04:10:00.720Z,0
2018-12-25T04:11:01.317Z,0
2018-12-25T04:12:01.908Z,0
2018-12-25T04:13:02.500Z,0
2018-12-25T04:14:03.091Z,0
2018-12-25T04:15:03.684Z,0
2018-12-25T04:16:04.287Z,0
2018-12-25T04:17:04.862Z,0
2018-12-25T04:18:05.456Z,0
2018-12-25T04:19:06.042Z,0
2018-12-25T04:20:06.647Z,0
2018-12-25T04:21:07.230Z,0
2018-12-25T04:22:07.829Z,0
2018-12-25T04:23:08.423Z,0
2018-12-25T04:24:09.018Z,0
2018-12-25T04:25:09.613Z,0
2018-12-25T04:26:10.195Z,0
2018-12-25T04:27:10.791Z,0
2018-12-25T04:28:11.385Z,0
2018-12-25T04:29:11.979Z,0
2018-12-25T04:30:12.574Z,0
2018-12-25T04:31:13.170Z,0
2018-12-25T04:32:13.872Z,0
2018-12-25T04:33:14.347Z,0
2018-12-25T04:34:14.935Z,0
2018-12-25T04:35:15.528Z,0
2018-12-25T04:36:16.120Z,0
2018-12-25T04:37:16.717Z,0
2018-12-25T04:38:17.310Z,0
2018-12-25T04:39:17.903Z,0
2018-12-25T04:40:18.495Z,0
2018-12-25T04:41:19.076Z,0
2018-12-25T04:42:19.666Z,0
2018-12-25T04:43:20.260Z,0
2018-12-25T04:44:20.854Z,0
2018-12-25T04:45:21.446Z,0
2018-12-25T04:46:22.040Z,0
2018-12-25T04:47:22.634Z,0
2018-12-25T04:48:23.227Z,0
2018-12-25T04:49:23.824Z,0
2018-12-25T04:50:29.122Z,0
2018-12-25T04:51:25.003Z,0
2018-12-25T04:52:25.596Z,0
2018-12-25T04:53:26.187Z,0
2018-12-25T04:54:26.773Z,0
2018-12-25T04:55:27.376Z,0
2018-12-25T04:56:27.941Z,0
2018-12-25T04:57:28.528Z,0
2018-12-25T04:58:29.122Z,0
2018-12-25T04:59:29.710Z,0
2018-12-25T05:00:30.304Z,0
2018-12-25T05:01:30.898Z,0
2018-12-25T05:02:31.484Z,0
2018-12-25T05:03:32.072Z,0
2018-12-25T05:04:32.664Z,0
2018-12-25T05:05:33.259Z,0
2018-12-25T05:06:33.853Z,0
2018-12-25T05:07:34.479Z,0
2018-12-25T05:08:35.045Z,0
2018-12-25T05:09:35.638Z,0
2018-12-25T05:10:36.242Z,0
2018-12-25T05:11:36.830Z,0
2018-12-25T05:12:37.422Z,0
2018-12-25T05:13:38.014Z,0
2018-12-25T05:14:38.603Z,0
2018-12-25T05:15:39.197Z,0
2018-12-25T05:16:39.790Z,0
2018-12-25T05:17:40.384Z,0
2018-12-25T05:18:40.968Z,0
2018-12-25T05:19:41.564Z,0
2018-12-25T05:20:42.149Z,0
2018-12-25T05:21:42.743Z,0
2018-12-25T05:22:43.336Z,0
2018-12-25T05:23:43.929Z,0
2018-12-25T05:24:44.517Z,0
2018-12-25T05:25:45.111Z,0
2018-12-25T05:26:45.697Z,0
2018-12-25T05:27:46.289Z,0
2018-12-25T05:28:46.878Z,0
2018-12-25T05:29:47.461Z,0
2018-12-25T05:30:48.055Z,0
2018-12-25T05:31:48.640Z,0
2018-12-25T05:32:49.235Z,0
2018-12-25T05:33:49.828Z,0
2018-12-25T05:34:50.424Z,0
2018-12-25T05:35:51.014Z,0
2018-12-25T05:36:51.613Z,0
2018-12-25T05:37:52.200Z,0
2018-12-25T05:38:52.798Z,0
2018-12-25T05:39:53.381Z,0
2018-12-25T05:40:53.964Z,0
2018-12-25T05:41:54.553Z,0
2018-12-25T05:42:55.147Z,0
2018-12-25T05:43:55.742Z,0
2018-12-25T05:44:56.326Z,0
2018-12-25T05:45:56.914Z,0
2018-12-25T05:46:57.516Z,0
2018-12-25T05:47:58.104Z,0
2018-12-25T05:48:58.696Z,0
2018-12-25T05:49:59.291Z,0
2018-12-25T05:50:59.885Z,0
2018-12-25T05:52:00.481Z,0
2018-12-25T05:53:01.069Z,0
2018-12-25T05:54:01.668Z,0
2018-12-25T05:55:02.261Z,0
2018-12-25T05:56:02.857Z,0
2018-12-25T05:57:03.448Z,0
2018-12-25T05:58:04.040Z,0
2018-12-25T05:59:04.631Z,0
2018-12-25T06:00:05.229Z,0
2018-12-25T06:01:05.824Z,0
2018-12-25T06:02:06.424Z,0
2018-12-25T06:03:07.023Z,0
2018-12-25T06:04:07.600Z,0
2018-12-25T06:05:08.199Z,0
2018-12-25T06:06:08.790Z,0
2018-12-25T06:07:09.377Z,0
2018-12-25T06:08:09.977Z,0
2018-12-25T06:09:10.563Z,0
2018-12-25T06:10:11.162Z,0
2018-12-25T06:11:11.734Z,0
2018-12-25T06:12:12.321Z,0
2018-12-25T06:13:12.914Z,0
2018-12-25T06:14:13.510Z,0
2018-12-25T06:15:14.103Z,0
2018-12-25T06:16:14.696Z,0
2018-12-25T06:17:15.288Z,0
2018-12-25T06:18:15.884Z,0
2018-12-25T06:19:16.481Z,0
2018-12-25T06:20:17.075Z,0
2018-12-25T06:21:17.672Z,0
2018-12-25T06:22:18.265Z,0
2018-12-25T06:23:18.860Z,0
2018-12-25T06:24:19.455Z,0
2018-12-25T06:25:20.058Z,0
2018-12-25T06:26:20.651Z,0
2018-12-25T06:27:21.272Z,0
2018-12-25T06:28:21.849Z,0
2018-12-25T06:29:22.436Z,0
2018-12-25T06:30:23.029Z,0
2018-12-25T06:31:23.626Z,0
2018-12-25T06:32:24.218Z,0
2018-12-25T06:33:24.803Z,0
2018-12-25T06:34:25.402Z,0
2018-12-25T06:35:25.996Z,0
2018-12-25T06:36:26.593Z,0
2018-12-25T06:37:27.544Z,0
2018-12-25T06:38:28.039Z,0
2018-12-25T06:39:28.630Z,0
2018-12-25T06:40:29.219Z,0
2018-12-25T06:41:29.814Z,0
2018-12-25T06:42:30.399Z,0
2018-12-25T06:43:30.996Z,0
2018-12-25T06:44:31.583Z,0
2018-12-25T06:45:32.178Z,0
2018-12-25T06:46:32.766Z,0
2018-12-25T06:47:33.350Z,0
2018-12-25T06:48:33.946Z,0
2018-12-25T06:49:34.549Z,0
2018-12-25T06:50:35.138Z,0
2018-12-25T06:51:35.731Z,0
2018-12-25T06:52:36.332Z,0
2018-12-25T06:53:36.928Z,0
2018-12-25T06:54:39.366Z,0
2018-12-25T06:55:38.101Z,0
2018-12-25T06:56:38.695Z,0
2018-12-25T06:57:39.284Z,0
2018-12-25T06:58:39.870Z,0
2018-12-25T06:59:40.468Z,0
2018-12-25T07:00:41.062Z,0
2018-12-25T07:01:41.658Z,0
2018-12-25T07:02:42.245Z,4
2018-12-25T07:03:42.840Z,4
2018-12-25T07:04:43.434Z,4
2018-12-25T07:05:44.027Z,4
2018-12-25T07:06:44.624Z,4
2018-12-25T07:07:45.221Z,8
2018-12-25T07:08:45.811Z,4
2018-12-25T07:09:46.405Z,8
2018-12-25T07:10:47.004Z,8
2018-12-25T07:11:47.591Z,12
2018-12-25T07:12:48.183Z,16
2018-12-25T07:13:48.776Z,16
2018-12-25T07:14:49.371Z,20
2018-12-25T07:15:49.958Z,24
2018-12-25T07:16:50.558Z,32
2018-12-25T07:17:51.148Z,36
2018-12-25T07:18:51.735Z,44
2018-12-25T07:19:52.321Z,48
2018-12-25T07:20:52.910Z,52
2018-12-25T07:21:53.510Z,60
2018-12-25T07:22:54.109Z,68
2018-12-25T07:23:54.701Z,76
2018-12-25T07:24:55.298Z,88
2018-12-25T07:25:55.893Z,96
2018-12-25T07:26:56.483Z,108
2018-12-25T07:27:57.077Z,116
2018-12-25T07:28:57.673Z,128
2018-12-25T07:29:58.263Z,140
2018-12-25T07:30:58.860Z,156
2018-12-25T07:31:59.455Z,172
2018-12-25T07:33:00.055Z,188
2018-12-25T07:34:00.644Z,212
2018-12-25T07:35:01.230Z,236
2018-12-25T07:36:01.818Z,260
2018-12-25T07:37:02.416Z,288
2018-12-25T07:38:03.002Z,320
2018-12-25T07:39:03.601Z,356
2018-12-25T07:40:04.193Z,388
2018-12-25T07:41:04.787Z,424
2018-12-25T07:42:05.383Z,460
2018-12-25T07:43:05.974Z,492
2018-12-25T07:44:06.574Z,528
2018-12-25T07:45:07.168Z,556
2018-12-25T07:46:07.770Z,588
2018-12-25T07:47:08.363Z,620
2018-12-25T07:48:08.955Z,656
2018-12-25T07:49:09.551Z,692
2018-12-25T07:50:10.173Z,720
2018-12-25T07:51:10.746Z,744
2018-12-25T07:52:11.345Z,776
2018-12-25T07:53:11.940Z,812
2018-12-25T07:54:12.540Z,856
2018-12-25T07:55:13.128Z,924
2018-12-25T07:56:13.720Z,1008
2018-12-25T07:57:14.316Z,1080
2018-12-25T07:58:14.908Z,1116
2018-12-25T07:59:15.498Z,1120
2018-12-25T08:00:16.097Z,1124
2018-12-25T08:01:16.698Z,1148
2018-12-25T08:02:17.287Z,1180
2018-12-25T08:03:17.887Z,1220
2018-12-25T08:04:18.482Z,1264
2018-12-25T08:05:19.078Z,1316
2018-12-25T08:06:19.677Z,1412
2018-12-25T08:07:20.275Z,1540
2018-12-25T08:08:20.872Z,1636
2018-12-25T08:09:21.463Z,1708
2018-12-25T08:10:22.063Z,1820
2018-12-25T08:11:22.658Z,1948
2018-12-25T08:12:23.259Z,2040
2018-12-25T08:13:23.860Z,2112
2018-12-25T08:14:24.465Z,2204
2018-12-25T08:15:25.064Z,2312
2018-12-25T08:16:25.662Z,2420
2018-12-25T08:17:26.265Z,2528
2018-12-25T08:18:26.859Z,2612
2018-12-25T08:19:27.455Z,2692
2018-12-25T08:20:28.055Z,2792
2018-12-25T08:21:29.357Z,2908
2018-12-25T08:22:30.056Z,2996
2018-12-25T08:23:30.656Z,3076
2018-12-25T08:24:31.256Z,3152
2018-12-25T08:25:31.854Z,3208
2018-12-25T08:26:32.558Z,3256
2018-12-25T08:27:33.047Z,3344
2018-12-25T08:28:33.636Z,3424
2018-12-25T08:29:34.233Z,3488
2018-12-25T08:30:34.834Z,3564
2018-12-25T08:31:35.431Z,3644
2018-12-25T08:32:36.022Z,3724
2018-12-25T08:33:36.621Z,3828
2018-12-25T08:34:37.226Z,3900
2018-12-25T08:35:37.813Z,3888
2018-12-25T08:36:38.417Z,3828
2018-12-25T08:37:39.006Z,3844
2018-12-25T08:38:39.606Z,3940
2018-12-25T08:39:40.203Z,4036
2018-12-25T08:40:40.805Z,4164
2018-12-25T08:41:41.396Z,4336
2018-12-25T08:42:42.000Z,4452
2018-12-25T08:43:42.595Z,4500
2018-12-25T08:44:43.192Z,4612
2018-12-25T08:45:43.783Z,4752
2018-12-25T08:46:44.375Z,4856
2018-12-25T08:47:44.975Z,4912
2018-12-25T08:48:45.580Z,4924
2018-12-25T08:49:46.176Z,4936
2018-12-25T08:50:46.773Z,5000
2018-12-25T08:51:47.380Z,4980
2018-12-25T08:52:47.975Z,4976
2018-12-25T08:53:48.586Z,5084
2018-12-25T08:54:49.186Z,5312
2018-12-25T08:55:49.785Z,5648
2018-12-25T08:56:50.383Z,5996
2018-12-25T08:57:50.979Z,6236
2018-12-25T08:58:51.580Z,6356
2018-12-25T08:59:52.188Z,6380
2018-12-25T09:00:52.800Z,6452
2018-12-25T09:01:53.386Z,6424
2018-12-25T09:02:53.989Z,6412
2018-12-25T09:03:54.586Z,6424
2018-12-25T09:04:55.191Z,6432
2018-12-25T09:05:55.792Z,6404
2018-12-25T09:06:56.401Z,6320
2018-12-25T09:07:56.994Z,6372
2018-12-25T09:08:57.615Z,6492
2018-12-25T09:09:58.195Z,6648
2018-12-25T09:10:58.794Z,6772
2018-12-25T09:11:59.388Z,6904
2018-12-25T09:12:59.986Z,7152
2018-12-25T09:14:00.586Z,7456
2018-12-25T09:15:01.187Z,7692
2018-12-25T09:16:01.774Z,7916
2018-12-25T09:17:02.376Z,7932
2018-12-25T09:18:02.976Z,7816
2018-12-25T09:19:03.577Z,7740
2018-12-25T09:20:04.176Z,7692
2018-12-25T09:21:04.782Z,7632
2018-12-25T09:22:05.391Z,7576
2018-12-25T09:23:05.986Z,7444
2018-12-25T09:24:06.699Z,7352
2018-12-25T09:25:07.302Z,7284
2018-12-25T09:26:07.904Z,7188
2018-12-25T09:27:08.503Z,7092
2018-12-25T09:28:09.110Z,7024
2018-12-25T09:29:09.712Z,7052
2018-12-25T09:30:10.310Z,7220
2018-12-25T09:31:10.909Z,7472
2018-12-25T09:32:11.516Z,7700
2018-12-25T09:33:12.114Z,7804
2018-12-25T09:34:12.713Z,7896
2018-12-25T09:35:13.316Z,8044
2018-12-25T09:36:13.918Z,8168
2018-12-25T09:37:14.509Z,8260
2018-12-25T09:38:15.136Z,8408
2018-12-25T09:39:15.711Z,8580
2018-12-25T09:40:16.313Z,8736
2018-12-25T09:41:16.912Z,8852
2018-12-25T09:42:17.507Z,8704
2018-12-25T09:43:18.101Z,8452
2018-12-25T09:44:18.694Z,8320
2018-12-25T09:45:19.293Z,8260
2018-12-25T09:46:19.901Z,8368
2018-12-25T09:47:20.498Z,8324
2018-12-25T09:48:21.098Z,8336
2018-12-25T09:49:21.690Z,8568
2018-12-25T09:50:22.292Z,8976
2018-12-25T09:51:22.896Z,9248
2018-12-25T09:52:23.495Z,9332
2018-12-25T09:53:24.092Z,9492
2018-12-25T09:54:24.692Z,9564
2018-12-25T09:55:25.292Z,9588
2018-12-25T09:56:25.892Z,9736
2018-12-25T09:57:26.491Z,9932
2018-12-25T09:58:27.092Z,10088
2018-12-25T09:59:27.695Z,10276
2018-12-25T10:00:28.290Z,10412
2018-12-25T10:01:28.892Z,10420
2018-12-25T10:02:29.494Z,10468
2018-12-25T10:03:30.097Z,10628
2018-12-25T10:04:30.694Z,10764
2018-12-25T10:05:31.295Z,10896
2018-12-25T10:06:31.892Z,11636
2018-12-25T10:07:32.500Z,11180
2018-12-25T10:08:33.099Z,10592
2018-12-25T10:09:33.704Z,10292
2018-12-25T10:10:34.304Z,10332
2018-12-25T10:11:34.914Z,10620
2018-12-25T10:12:35.517Z,10716
2018-12-25T10:13:36.117Z,10704
2018-12-25T10:14:36.721Z,10524
2018-12-25T10:15:37.333Z,10184
2018-12-25T10:16:37.927Z,9876
2018-12-25T10:17:38.531Z,9788
2018-12-25T10:18:39.131Z,9740
2018-12-25T10:19:39.728Z,9572
2018-12-25T10:20:40.333Z,9516
2018-12-25T10:21:40.932Z,9588
2018-12-25T10:22:41.540Z,9416
2018-12-25T10:23:42.122Z,9604
2018-12-25T10:24:42.724Z,9860
2018-12-25T10:25:43.329Z,10036
2018-12-25T10:26:43.923Z,10160
2018-12-25T10:27:44.527Z,10140
2018-12-25T10:28:45.136Z,10188
2018-12-25T10:29:45.737Z,10328
2018-12-25T10:30:46.340Z,10496
2018-12-25T10:31:46.936Z,10608
2018-12-25T10:32:47.531Z,10716
2018-12-25T10:33:48.137Z,10804
2018-12-25T10:34:48.739Z,10908
2018-12-25T10:35:49.344Z,10812
2018-12-25T10:36:49.945Z,10556
2018-12-25T10:37:50.542Z,10444
2018-12-25T10:38:51.143Z,10448
2018-12-25T10:39:51.750Z,10408
2018-12-25T10:40:52.342Z,10368
2018-12-25T10:41:52.938Z,10404
2018-12-25T10:42:53.541Z,10480
2018-12-25T10:43:54.148Z,10460
2018-12-25T10:44:54.743Z,10400
2018-12-25T10:45:55.341Z,10572
2018-12-25T10:46:55.936Z,10964
2018-12-25T10:47:56.539Z,11380
2018-12-25T10:48:57.146Z,11660
2018-12-25T10:49:57.749Z,11744
2018-12-25T10:50:58.349Z,11764
2018-12-25T10:51:58.956Z,11668
2018-12-25T10:52:59.558Z,11520
2018-12-25T10:54:00.163Z,11524
2018-12-25T10:55:00.767Z,11520
2018-12-25T10:56:01.372Z,11560
2018-12-25T10:57:01.965Z,11684
2018-12-25T10:58:04.526Z,11764
2018-12-25T10:59:04.158Z,11532
2018-12-25T11:00:04.760Z,11352
2018-12-25T11:01:05.361Z,11448
2018-12-25T11:02:05.967Z,11572
2018-12-25T11:03:06.570Z,11592
2018-12-25T11:04:07.180Z,11392
2018-12-25T11:05:07.783Z,11132
2018-12-25T11:06:08.385Z,10972
2018-12-25T11:07:08.995Z,10872
2018-12-25T11:08:09.600Z,10716
2018-12-25T11:09:10.203Z,10612
2018-12-25T11:10:10.803Z,10668
2018-12-25T11:11:11.410Z,10752
2018-12-25T11:12:12.014Z,10824
2018-12-25T11:13:12.611Z,10912
2018-12-25T11:14:13.219Z,11024
2018-12-25T11:15:13.823Z,11136
2018-12-25T11:16:14.426Z,11208
2018-12-25T11:17:15.024Z,11428
2018-12-25T11:18:15.629Z,11680
2018-12-25T11:19:16.232Z,11776
2018-12-25T11:20:16.824Z,11868
2018-12-25T11:21:17.432Z,11780
2018-12-25T11:22:20.001Z,11644
2018-12-25T11:23:18.638Z,11524
2018-12-25T11:24:19.240Z,11488
2018-12-25T11:25:19.842Z,11328
2018-12-25T11:26:20.448Z,11240
2018-12-25T11:27:21.058Z,11300
2018-12-25T11:28:21.657Z,11444
2018-12-25T11:29:22.256Z,11944
2018-12-25T11:30:22.861Z,11884
2018-12-25T11:31:23.464Z,11908
2018-12-25T11:32:24.067Z,11724
2018-12-25T11:33:24.662Z,11420
2018-12-25T11:34:25.266Z,11292
2018-12-25T11:35:25.867Z,11528
2018-12-25T11:36:26.469Z,12012
2018-12-25T11:37:27.077Z,11872
2018-12-25T11:38:27.677Z,11440
2018-12-25T11:39:28.280Z,11188
2018-12-25T11:40:28.877Z,11480
2018-12-25T11:41:29.482Z,11920
2018-12-25T11:42:30.087Z,12472
2018-12-25T11:43:30.696Z,12404
2018-12-25T11:44:31.291Z,12352
2018-12-25T11:45:31.896Z,12452
2018-12-25T11:46:32.497Z,11936
2018-12-25T11:47:33.095Z,11968
2018-12-25T11:48:33.702Z,12164
2018-12-25T11:49:34.308Z,12216
2018-12-25T11:50:34.904Z,11968
2018-12-25T11:51:35.499Z,11840
2018-12-25T11:52:36.098Z,11172
2018-12-25T11:53:36.704Z,10584
2018-12-25T11:54:37.305Z,10160
2018-12-25T11:55:37.910Z,9844
2018-12-25T11:56:38.515Z,9492
2018-12-25T11:57:39.118Z,9248
2018-12-25T11:58:39.718Z,9444
2018-12-25T11:59:40.313Z,10256
2018-12-25T12:00:40.909Z,11556
2018-12-25T12:01:41.514Z,12328
2018-12-25T12:02:42.117Z,12580
2018-12-25T12:03:42.716Z,12784
2018-12-25T12:04:43.321Z,12744
2018-12-25T12:05:43.916Z,12440
2018-12-25T12:06:44.512Z,11912
2018-12-25T12:07:45.108Z,11248
2018-12-25T12:08:45.714Z,10968
2018-12-25T12:09:46.318Z,10988
2018-12-25T12:10:46.919Z,11052
2018-12-25T12:11:47.513Z,10932
2018-12-25T12:12:48.115Z,10620
2018-12-25T12:13:48.719Z,10260
2018-12-25T12:14:49.323Z,9944
2018-12-25T12:15:49.928Z,9660
2018-12-25T12:16:50.530Z,9420
2018-12-25T12:17:51.135Z,9200
2018-12-25T12:18:51.738Z,9044
2018-12-25T12:19:52.340Z,9012
2018-12-25T12:20:52.941Z,9032
2018-12-25T12:21:53.547Z,9168
2018-12-25T12:22:54.150Z,9300
2018-12-25T12:23:54.752Z,9412
2018-12-25T12:24:55.358Z,9660
2018-12-25T12:25:55.961Z,10020
2018-12-25T12:26:56.562Z,10388
2018-12-25T12:27:57.168Z,10720
2018-12-25T12:28:57.760Z,10948
2018-12-25T12:29:58.365Z,11120
2018-12-25T12:30:58.963Z,11328
2018-12-25T12:31:59.570Z,11456
2018-12-25T12:33:00.172Z,11352
2018-12-25T12:34:00.765Z,11012
2018-12-25T12:35:01.374Z,10684
2018-12-25T12:36:01.974Z,10616
2018-12-25T12:37:02.578Z,10796
2018-12-25T12:38:03.189Z,11024
2018-12-25T12:39:03.800Z,10992
2018-12-25T12:40:04.387Z,10880
2018-12-25T12:41:04.999Z,10812
2018-12-25T12:42:05.593Z,10920
2018-12-25T12:43:06.193Z,11084
2018-12-25T12:44:06.794Z,11176
2018-12-25T12:45:07.395Z,11140
2018-12-25T12:46:07.993Z,10904
2018-12-25T12:47:08.589Z,10668
2018-12-25T12:48:09.193Z,10580
2018-12-25T12:49:09.790Z,10540
2018-12-25T12:50:10.398Z,10524
2018-12-25T12:51:10.997Z,10640
2018-12-25T12:52:11.599Z,10868
2018-12-25T12:53:12.207Z,11048
2018-12-25T12:54:12.811Z,10880
2018-12-25T12:55:13.419Z,10676
2018-12-25T12:56:14.017Z,10640
2018-12-25T12:57:14.619Z,10824
2018-12-25T12:58:15.225Z,10692
2018-12-25T12:59:15.831Z,9968
2018-12-25T13:00:16.426Z,9500
2018-12-25T13:01:17.028Z,9476
2018-12-25T13:02:17.644Z,9296
2018-12-25T13:03:18.230Z,9096
2018-12-25T13:04:18.833Z,8956
2018-12-25T13:05:19.434Z,8744
2018-12-25T13:06:20.039Z,8276
2018-12-25T13:07:20.641Z,7736
2018-12-25T13:08:21.256Z,7340
2018-12-25T13:09:21.836Z,7332
2018-12-25T13:10:22.441Z,7656
2018-12-25T13:11:23.043Z,7796
2018-12-25T13:12:23.639Z,7644
2018-12-25T13:13:24.240Z,7272
2018-12-25T13:14:24.836Z,7152
2018-12-25T13:15:25.443Z,7552
2018-12-25T13:16:26.051Z,8148
2018-12-25T13:17:26.662Z,8476
2018-12-25T13:18:27.268Z,8736
2018-12-25T13:19:27.870Z,8860
2018-12-25T13:20:28.473Z,8496
2018-12-25T13:21:29.071Z,7648
2018-12-25T13:22:29.756Z,6704
2018-12-25T13:23:30.266Z,5988
2018-12-25T13:24:30.871Z,5592
2018-12-25T13:25:31.464Z,5408
2018-12-25T13:26:32.067Z,5328
2018-12-25T13:27:32.673Z,5280
2018-12-25T13:28:33.280Z,5284
2018-12-25T13:29:33.879Z,5388
2018-12-25T13:30:34.480Z,5504
2018-12-25T13:31:35.081Z,5572
2018-12-25T13:32:35.673Z,5592
2018-12-25T13:33:36.269Z,5520
2018-12-25T13:34:36.891Z,5400
2018-12-25T13:35:37.473Z,5308
2018-12-25T13:36:38.067Z,5276
2018-12-25T13:37:38.664Z,5308
2018-12-25T13:38:39.260Z,5372
2018-12-25T13:39:39.864Z,5348
2018-12-25T13:40:40.466Z,5192
2018-12-25T13:41:41.068Z,5048
2018-12-25T13:42:41.669Z,5016
2018-12-25T13:43:42.262Z,5092
2018-12-25T13:44:42.865Z,5192
2018-12-25T13:45:43.468Z,5252
2018-12-25T13:46:51.434Z,5284
2018-12-25T13:47:44.686Z,5296
2018-12-25T13:48:45.290Z,5364
2018-12-25T13:49:45.889Z,5508
2018-12-25T13:50:46.491Z,5704
2018-12-25T13:51:47.095Z,5812
2018-12-25T13:52:47.717Z,5752
2018-12-25T13:53:48.306Z,5636
2018-12-25T13:54:48.897Z,5732
2018-12-25T13:55:49.502Z,5988
2018-12-25T13:56:50.119Z,6140
2018-12-25T13:57:50.709Z,6048
2018-12-25T13:58:51.309Z,5720
2018-12-25T13:59:51.904Z,5412
2018-12-25T14:00:52.504Z,5344
2018-12-25T14:01:53.112Z,5396
2018-12-25T14:02:53.710Z,5408
2018-12-25T14:03:54.412Z,5432
2018-12-25T14:04:54.915Z,5496
2018-12-25T14:05:55.521Z,5528